Time,TemperatureF,DewpointF,PressureIn,WindDirection,WindDirectionDegrees,WindSpeedMPH,WindSpeedGustMPH,Humidity,HourlyPrecipIn,Conditions,Clouds,dailyrainin,SoftwareType,DateUTC
2013-09-10 00:04:00,60.6,57.7,25.10,North,-999,0.0,0.0,90,0.00,,,-99.99,FreeWX 2.04,2013-09-10 06:04:00,
2013-09-10 00:09:00,60.8,57.9,25.10,North,-999,0.0,0.0,90,0.00,,,-99.99,FreeWX 2.04,2013-09-10 06:09:00,
2013-09-10 00:14:00,61.0,58.1,25.10,North,-999,0.0,0.0,90,0.00,,,-99.99,FreeWX 2.04,2013-09-10 06:14:00,
2013-09-10 00:19:00,61.0,58.1,25.07,North,-999,0.0,3.1,90,0.00,,,-99.99,FreeWX 2.04,2013-09-10 06:19:00,
2013-09-10 00:24:00,60.8,57.9,25.07,North,4,1.0,4.0,90,0.00,,,-99.99,FreeWX 2.04,2013-09-10 06:24:00,
2013-09-10 00:29:00,61.0,58.1,25.07,North,4,2.0,3.1,90,0.00,,,-99.99,FreeWX 2.04,2013-09-10 06:29:00,
2013-09-10 00:34:00,61.0,58.1,25.07,North,4,2.0,3.6,90,0.00,,,-99.99,FreeWX 2.04,2013-09-10 06:34:00,
2013-09-10 00:39:00,61.0,58.1,25.07,North,4,2.0,3.6,90,0.00,,,-99.99,FreeWX 2.04,2013-09-10 06:39:00,
2013-09-10 00:44:00,60.8,57.9,25.07,North,4,3.0,4.5,90,0.00,,,-99.99,FreeWX 2.04,2013-09-10 06:44:00,
2013-09-10 00:49:00,60.8,57.9,25.07,North,4,4.0,5.4,90,0.00,,,-99.99,FreeWX 2.04,2013-09-10 06:49:00,
2013-09-10 00:54:00,60.8,57.9,25.07,North,4,3.0,4.9,90,0.00,,,-99.99,FreeWX 2.04,2013-09-10 06:54:00,
2013-09-10 00:59:00,60.8,57.9,25.07,North,4,2.0,3.6,90,0.00,,,-99.99,FreeWX 2.04,2013-09-10 06:59:00,
2013-09-10 01:04:00,60.8,57.9,25.07,North,3,3.0,6.7,90,0.00,,,-99.99,FreeWX 2.04,2013-09-10 07:04:00,
2013-09-10 01:09:00,60.8,57.9,25.07,NNW,347,4.0,7.4,90,0.00,,,-99.99,FreeWX 2.04,2013-09-10 07:09:00,
2013-09-10 01:14:00,60.8,57.9,25.07,NNW,331,4.0,4.5,90,0.00,,,-99.99,FreeWX 2.04,2013-09-10 07:14:00,
2013-09-10 01:19:00,60.6,57.7,25.07,NNW,330,3.0,4.5,90,0.00,,,-99.99,FreeWX 2.04,2013-09-10 07:19:00,
2013-09-10 01:24:00,60.6,57.7,25.07,NNW,330,3.0,4.9,90,0.00,,,-99.99,FreeWX 2.04,2013-09-10 07:24:00,
2013-09-10 01:29:00,60.6,57.7,25.07,NNW,330,3.0,4.5,90,0.00,,,-99.99,FreeWX 2.04,2013-09-10 07:29:00,
2013-09-10 01:34:00,60.4,57.6,25.07,NNW,330,2.0,2.7,90,0.00,,,-99.99,FreeWX 2.04,2013-09-10 07:34:00,
2013-09-10 01:39:00,60.6,57.7,25.07,North,-999,0.0,3.1,90,0.00,,,-99.99,FreeWX 2.04,2013-09-10 07:39:00,
2013-09-10 01:44:00,60.6,57.7,25.07,NNW,330,2.0,5.4,90,0.00,,,-99.99,FreeWX 2.04,2013-09-10 07:44:00,
2013-09-10 01:49:00,60.6,57.7,25.07,NNW,330,2.0,4.0,90,0.00,,,-99.99,FreeWX 2.04,2013-09-10 07:49:00,
2013-09-10 01:54:00,60.6,57.7,25.07,NNW,330,2.0,4.9,90,0.00,,,-99.99,FreeWX 2.04,2013-09-10 07:54:00,
2013-09-10 01:59:00,60.4,57.6,25.07,NNW,330,2.0,4.5,90,0.00,,,-99.99,FreeWX 2.04,2013-09-10 07:59:00,
2013-09-10 02:04:00,60.6,57.7,25.07,NNW,330,2.0,4.0,90,0.00,,,-99.99,FreeWX 2.04,2013-09-10 08:04:00,
2013-09-10 02:09:00,60.6,57.7,25.07,NNW,330,2.0,4.5,90,0.00,,,-99.99,FreeWX 2.04,2013-09-10 08:09:00,
2013-09-10 02:14:00,60.6,57.7,25.07,NNW,330,2.0,5.8,90,0.00,,,-99.99,FreeWX 2.04,2013-09-10 08:14:00,
2013-09-10 02:19:00,60.6,57.7,25.07,NNW,330,4.0,5.8,90,0.00,,,-99.99,FreeWX 2.04,2013-09-10 08:19:00,
2013-09-10 02:24:00,60.6,57.7,25.07,NNW,330,4.0,6.3,90,0.00,,,-99.99,FreeWX 2.04,2013-09-10 08:24:00,
2013-09-10 02:29:00,60.6,57.7,25.07,NNW,331,5.0,6.7,90,0.00,,,-99.99,FreeWX 2.04,2013-09-10 08:29:00,
2013-09-10 02:34:00,60.6,57.7,25.07,NNW,341,5.0,6.9,90,0.00,,,-99.99,FreeWX 2.04,2013-09-10 08:34:00,
2013-09-10 02:39:00,60.6,57.7,25.07,North,356,5.0,7.8,90,0.00,,,-99.99,FreeWX 2.04,2013-09-10 08:39:00,
2013-09-10 02:44:00,60.8,57.9,25.07,North,4,5.0,7.8,90,0.00,,,-99.99,FreeWX 2.04,2013-09-10 08:44:00,
2013-09-10 02:49:00,60.8,57.9,25.07,North,11,5.0,6.3,90,0.00,,,-99.99,FreeWX 2.04,2013-09-10 08:49:00,
2013-09-10 02:54:00,61.0,58.1,25.07,NNE,18,4.0,5.8,90,0.00,,,-99.99,FreeWX 2.04,2013-09-10 08:54:00,
2013-09-10 02:59:00,61.0,58.1,25.07,NNE,22,3.0,6.3,90,0.00,,,-99.99,FreeWX 2.04,2013-09-10 08:59:00,
2013-09-10 03:04:00,61.0,58.1,25.07,NNE,27,3.0,4.9,90,0.00,,,-99.99,FreeWX 2.04,2013-09-10 09:04:00,
2013-09-10 03:09:00,61.0,58.1,25.07,NNE,22,4.0,6.7,90,0.00,,,-99.99,FreeWX 2.04,2013-09-10 09:09:00,
2013-09-10 03:14:00,61.0,58.1,25.07,NNE,14,4.0,5.8,90,0.00,,,-99.99,FreeWX 2.04,2013-09-10 09:14:00,
2013-09-10 03:19:00,61.2,58.3,25.07,NNE,12,3.0,4.9,90,0.00,,,-99.99,FreeWX 2.04,2013-09-10 09:19:00,
2013-09-10 03:24:00,61.2,58.3,25.07,NNE,12,2.0,6.3,90,0.00,,,-99.99,FreeWX 2.04,2013-09-10 09:24:00,
2013-09-10 03:29:00,61.3,58.5,25.07,NNE,13,3.0,6.7,90,0.00,,,-99.99,FreeWX 2.04,2013-09-10 09:29:00,
2013-09-10 03:34:00,61.3,58.5,25.07,NNE,13,4.0,4.5,90,0.00,,,-99.99,FreeWX 2.04,2013-09-10 09:34:00,
2013-09-10 03:39:00,61.3,58.6,25.07,NNE,14,4.0,4.9,91,0.00,,,-99.99,FreeWX 2.04,2013-09-10 09:39:00,
2013-09-10 03:44:00,61.5,58.8,25.07,NNE,12,4.0,4.9,91,0.00,,,-99.99,FreeWX 2.04,2013-09-10 09:44:00,
2013-09-10 03:49:00,61.3,58.6,25.07,North,9,4.0,6.3,91,0.00,,,-99.99,FreeWX 2.04,2013-09-10 09:49:00,
2013-09-10 03:54:00,61.3,58.6,25.07,North,7,4.0,5.8,91,0.00,,,-99.99,FreeWX 2.04,2013-09-10 09:54:00,
2013-09-10 03:59:00,61.5,58.6,25.07,North,1,4.0,5.4,90,0.00,,,-99.99,FreeWX 2.04,2013-09-10 09:59:00,
2013-09-10 04:04:00,61.5,58.6,25.04,North,356,3.0,4.5,90,0.00,,,-99.99,FreeWX 2.04,2013-09-10 10:04:00,
2013-09-10 04:09:00,61.3,58.5,25.04,North,356,2.0,3.6,90,0.00,,,-99.99,FreeWX 2.04,2013-09-10 10:09:00,
2013-09-10 04:14:00,61.5,58.6,25.04,North,356,1.0,3.6,90,0.00,,,-99.99,FreeWX 2.04,2013-09-10 10:14:00,
2013-09-10 04:19:00,61.2,58.3,25.04,North,356,1.0,3.1,90,0.00,,,-99.99,FreeWX 2.04,2013-09-10 10:19:00,
2013-09-10 04:24:00,61.2,58.3,25.04,North,356,2.0,4.0,90,0.00,,,-99.99,FreeWX 2.04,2013-09-10 10:24:00,
2013-09-10 04:29:00,61.2,58.3,25.04,North,356,3.0,4.0,90,0.00,,,-99.99,FreeWX 2.04,2013-09-10 10:29:00,
2013-09-10 04:34:00,61.0,58.1,25.04,North,350,4.0,6.7,90,0.00,,,-99.99,FreeWX 2.04,2013-09-10 10:34:00,
2013-09-10 04:39:00,61.0,57.7,25.04,NNW,344,4.0,5.8,89,0.00,,,-99.99,FreeWX 2.04,2013-09-10 10:39:00,
2013-09-10 04:44:00,60.8,57.9,25.04,NNW,343,4.0,6.3,90,0.00,,,-99.99,FreeWX 2.04,2013-09-10 10:44:00,
2013-09-10 04:49:00,60.6,57.7,25.04,NNW,337,5.0,7.8,90,0.00,,,-99.99,FreeWX 2.04,2013-09-10 10:49:00,
2013-09-10 04:54:00,60.4,57.6,25.04,NW,322,6.0,7.8,90,0.00,,,-99.99,FreeWX 2.04,2013-09-10 10:54:00,
2013-09-10 04:59:00,60.4,57.6,25.04,NW,316,6.0,7.8,90,0.00,,,-99.99,FreeWX 2.04,2013-09-10 10:59:00,
2013-09-10 05:04:00,60.6,57.7,25.07,NNW,328,6.0,7.8,90,0.00,,,-99.99,FreeWX 2.04,2013-09-10 11:04:00,
2013-09-10 05:09:00,60.6,57.7,25.07,NNW,336,5.0,6.9,90,0.00,,,-99.99,FreeWX 2.04,2013-09-10 11:09:00,
2013-09-10 05:14:00,60.6,57.7,25.07,NNW,335,5.0,6.3,90,0.00,,,-99.99,FreeWX 2.04,2013-09-10 11:14:00,
2013-09-10 05:19:00,60.8,57.9,25.07,NNW,334,4.0,6.7,90,0.00,,,-99.99,FreeWX 2.04,2013-09-10 11:19:00,
2013-09-10 05:24:00,60.8,57.9,25.07,NNW,333,3.0,5.8,90,0.00,,,-99.99,FreeWX 2.04,2013-09-10 11:24:00,
2013-09-10 05:29:00,60.6,57.7,25.07,NNW,334,1.0,4.5,90,0.00,,,-99.99,FreeWX 2.04,2013-09-10 11:29:00,
2013-09-10 05:34:00,60.6,57.7,25.07,NNW,336,2.0,5.8,90,0.00,,,-99.99,FreeWX 2.04,2013-09-10 11:34:00,
2013-09-10 05:39:00,60.6,57.7,25.07,NNW,339,4.0,6.9,90,0.00,,,-99.99,FreeWX 2.04,2013-09-10 11:39:00,
2013-09-10 05:44:00,60.8,57.9,25.07,North,349,5.0,7.4,90,0.00,,,-99.99,FreeWX 2.04,2013-09-10 11:44:00,
2013-09-10 05:49:00,60.8,57.9,25.04,North,2,5.0,6.7,90,0.00,,,-99.99,FreeWX 2.04,2013-09-10 11:49:00,
2013-09-10 05:54:00,60.8,57.9,25.04,NNE,15,4.0,7.4,90,0.00,,,-99.99,FreeWX 2.04,2013-09-10 11:54:00,
2013-09-10 05:59:00,60.8,57.9,25.04,NNE,23,4.0,8.7,90,0.00,,,-99.99,FreeWX 2.04,2013-09-10 11:59:00,
2013-09-10 06:04:00,60.8,57.9,25.04,NNE,26,5.0,7.4,90,0.00,,,-99.99,FreeWX 2.04,2013-09-10 12:04:00,
2013-09-10 06:09:00,60.8,57.9,25.04,NNE,30,5.0,8.3,90,0.00,,,-99.99,FreeWX 2.04,2013-09-10 12:09:00,
2013-09-10 06:14:00,60.6,57.7,25.04,NNE,30,4.0,6.9,90,0.00,,,-99.99,FreeWX 2.04,2013-09-10 12:14:00,
2013-09-10 06:19:00,61.0,58.3,25.04,NNE,14,4.0,6.3,91,0.00,,,-99.99,FreeWX 2.04,2013-09-10 12:19:00,
2013-09-10 06:24:00,61.2,58.3,25.04,North,1,4.0,6.3,90,0.00,,,-99.99,FreeWX 2.04,2013-09-10 12:24:00,
2013-09-10 06:29:00,61.3,58.6,25.04,North,2,4.0,6.3,91,0.00,,,-99.99,FreeWX 2.04,2013-09-10 12:29:00,
2013-09-10 06:34:00,61.3,58.5,25.07,North,2,3.0,4.9,90,0.00,,,-99.99,FreeWX 2.04,2013-09-10 12:34:00,
2013-09-10 06:39:00,61.3,58.5,25.07,North,2,2.0,3.6,90,0.00,,,-99.99,FreeWX 2.04,2013-09-10 12:39:00,
2013-09-10 06:44:00,61.3,58.5,25.07,North,2,2.0,5.8,90,0.00,,,-99.99,FreeWX 2.04,2013-09-10 12:44:00,
2013-09-10 06:49:00,61.3,58.5,25.07,North,7,3.0,5.4,90,0.00,,,-99.99,FreeWX 2.04,2013-09-10 12:49:00,
2013-09-10 06:54:00,61.5,58.6,25.07,NNE,12,4.0,5.4,90,0.00,,,-99.99,FreeWX 2.04,2013-09-10 12:54:00,
2013-09-10 06:59:00,61.5,58.6,25.07,North,11,4.0,5.4,90,0.00,,,-99.99,FreeWX 2.04,2013-09-10 12:59:00,
2013-09-10 07:04:00,61.7,58.5,25.07,NNE,12,4.0,7.8,89,0.00,,,-99.99,FreeWX 2.04,2013-09-10 13:04:00,
2013-09-10 07:09:00,61.7,58.5,25.07,NNE,14,4.0,6.9,89,0.00,,,-99.99,FreeWX 2.04,2013-09-10 13:09:00,
2013-09-10 07:14:00,61.7,58.5,25.07,NNE,18,4.0,6.7,89,0.00,,,-99.99,FreeWX 2.04,2013-09-10 13:14:00,
2013-09-10 07:19:00,61.5,58.3,25.07,NNE,25,4.0,7.8,89,0.00,,,-99.99,FreeWX 2.04,2013-09-10 13:19:00,
2013-09-10 07:24:00,61.7,58.1,25.07,NNE,28,4.0,7.8,88,0.00,,,-99.99,FreeWX 2.04,2013-09-10 13:24:00,
2013-09-10 07:29:00,61.7,58.1,25.07,NNE,28,5.0,8.7,88,0.00,,,-99.99,FreeWX 2.04,2013-09-10 13:29:00,
2013-09-10 07:35:00,61.9,57.9,25.07,NNE,29,5.0,7.8,87,0.00,,,-99.99,FreeWX 2.04,2013-09-10 13:35:00,
2013-09-10 07:40:00,62.1,58.1,25.07,NNE,27,5.0,10.1,87,0.00,,,-99.99,FreeWX 2.04,2013-09-10 13:40:00,
2013-09-10 07:45:00,61.9,57.9,25.07,NNE,23,5.0,7.8,87,0.00,,,-99.99,FreeWX 2.04,2013-09-10 13:45:00,
2013-09-10 07:50:00,61.9,57.9,25.07,NNE,25,5.0,7.4,87,0.00,,,-99.99,FreeWX 2.04,2013-09-10 13:50:00,
2013-09-10 07:55:00,61.7,58.1,25.07,NNE,28,4.0,7.4,88,0.00,,,-99.99,FreeWX 2.04,2013-09-10 13:55:00,
2013-09-10 08:00:00,61.9,58.3,25.07,NNE,26,4.0,7.4,88,0.00,,,-99.99,FreeWX 2.04,2013-09-10 14:00:00,
2013-09-10 08:05:00,61.9,58.3,25.07,NNE,26,4.0,7.4,88,0.00,,,-99.99,FreeWX 2.04,2013-09-10 14:05:00,
2013-09-10 08:10:00,61.9,58.3,25.07,NNE,29,4.0,5.4,88,0.00,,,-99.99,FreeWX 2.04,2013-09-10 14:10:00,
2013-09-10 08:15:00,61.9,58.3,25.07,NNE,32,3.0,6.9,88,0.00,,,-99.99,FreeWX 2.04,2013-09-10 14:15:00,
2013-09-10 08:20:00,61.9,58.3,25.07,NE,39,3.0,5.8,88,0.00,,,-99.99,FreeWX 2.04,2013-09-10 14:20:00,
2013-09-10 08:25:00,61.9,58.3,25.07,NE,44,3.0,5.8,88,0.00,,,-99.99,FreeWX 2.04,2013-09-10 14:25:00,
2013-09-10 08:30:00,61.5,58.3,25.07,NE,44,3.0,6.3,89,0.00,,,-99.99,FreeWX 2.04,2013-09-10 14:30:00,
2013-09-10 08:35:00,61.3,58.1,25.07,NE,41,3.0,5.8,89,0.00,,,-99.99,FreeWX 2.04,2013-09-10 14:35:00,
2013-09-10 08:40:00,61.3,58.1,25.07,NE,36,2.0,4.5,89,0.00,,,-99.99,FreeWX 2.04,2013-09-10 14:40:00,
2013-09-10 08:45:00,61.5,58.3,25.07,NE,34,2.0,4.0,89,0.00,,,-99.99,FreeWX 2.04,2013-09-10 14:45:00,
2013-09-10 08:50:00,61.2,57.9,25.10,NE,34,1.0,3.6,89,0.00,,,-99.99,FreeWX 2.04,2013-09-10 14:50:00,
2013-09-10 08:55:00,61.2,57.9,25.10,North,-999,0.0,2.7,89,0.00,,,-99.99,FreeWX 2.04,2013-09-10 14:55:00,
2013-09-10 09:05:00,61.5,58.3,25.10,NE,34,1.0,3.1,89,0.00,,,-99.99,FreeWX 2.04,2013-09-10 15:05:00,
2013-09-10 09:10:00,61.7,58.8,25.10,NE,34,1.0,3.6,90,0.00,,,-99.99,FreeWX 2.04,2013-09-10 15:10:00,
2013-09-10 09:15:00,61.7,58.8,25.10,North,-999,0.0,2.7,90,0.00,,,-99.99,FreeWX 2.04,2013-09-10 15:15:00,
2013-09-10 09:20:00,61.7,58.8,25.10,North,-999,0.0,0.0,90,0.00,,,-99.99,FreeWX 2.04,2013-09-10 15:20:00,
2013-09-10 09:25:00,61.7,58.8,25.10,North,-999,0.0,0.0,90,0.00,,,-99.99,FreeWX 2.04,2013-09-10 15:25:00,
2013-09-10 09:30:00,61.7,58.8,25.10,North,-999,0.0,2.7,90,0.00,,,-99.99,FreeWX 2.04,2013-09-10 15:30:00,
2013-09-10 09:35:00,61.9,59.0,25.10,North,-999,0.0,3.1,90,0.00,,,-99.99,FreeWX 2.04,2013-09-10 15:35:00,
2013-09-10 09:40:00,61.7,58.8,25.10,North,-999,0.0,0.0,90,0.00,,,-99.99,FreeWX 2.04,2013-09-10 15:40:00,
2013-09-10 09:45:00,61.5,58.6,25.10,North,-999,0.0,3.1,90,0.00,,,-99.99,FreeWX 2.04,2013-09-10 15:45:00,
2013-09-10 09:50:00,61.7,58.8,25.10,North,-999,0.0,0.0,90,0.00,,,-99.99,FreeWX 2.04,2013-09-10 15:50:00,
2013-09-10 09:55:00,61.7,58.8,25.10,North,-999,0.0,0.0,90,0.00,,,-99.99,FreeWX 2.04,2013-09-10 15:55:00,
2013-09-10 10:00:00,62.2,59.2,25.10,NNE,21,1.0,6.7,90,0.00,,,-99.99,FreeWX 2.04,2013-09-10 16:00:00,
2013-09-10 10:05:00,62.1,59.0,25.10,NNW,338,4.0,6.9,90,0.00,,,-99.99,FreeWX 2.04,2013-09-10 16:05:00,
2013-09-10 10:10:00,61.7,58.8,25.10,West,273,6.0,7.8,90,0.00,,,-99.99,FreeWX 2.04,2013-09-10 16:10:00,
2013-09-10 10:15:00,61.7,58.8,25.10,WSW,239,5.0,6.7,90,0.00,,,-99.99,FreeWX 2.04,2013-09-10 16:15:00,
2013-09-10 10:20:00,61.7,58.8,25.10,WSW,238,5.0,7.8,90,0.00,,,-99.99,FreeWX 2.04,2013-09-10 16:20:00,
2013-09-10 10:25:00,61.9,59.0,25.10,SSW,213,6.0,7.8,90,0.00,,,-99.99,FreeWX 2.04,2013-09-10 16:25:00,
2013-09-10 10:30:00,61.7,58.8,25.10,South,188,6.0,8.3,90,0.00,,,-99.99,FreeWX 2.04,2013-09-10 16:30:00,
2013-09-10 10:35:00,61.7,58.8,25.10,South,190,6.0,6.9,90,0.00,,,-99.99,FreeWX 2.04,2013-09-10 16:35:00,
2013-09-10 10:40:00,61.5,58.6,25.10,South,188,5.0,6.9,90,0.00,,,-99.99,FreeWX 2.04,2013-09-10 16:40:00,
2013-09-10 10:45:00,61.3,58.5,25.10,South,184,5.0,6.3,90,0.00,,,-99.99,FreeWX 2.04,2013-09-10 16:45:00,
2013-09-10 10:50:00,61.3,58.5,25.10,South,185,5.0,6.7,90,0.00,,,-99.99,FreeWX 2.04,2013-09-10 16:50:00,
2013-09-10 10:55:00,61.3,58.5,25.10,South,189,5.0,6.7,90,0.00,,,-99.99,FreeWX 2.04,2013-09-10 16:55:00,
2013-09-10 11:00:00,61.7,58.8,25.10,South,189,5.0,6.3,90,0.00,,,-99.99,FreeWX 2.04,2013-09-10 17:00:00,
2013-09-10 11:05:00,61.7,58.8,25.10,South,180,5.0,7.4,90,0.00,,,-99.99,FreeWX 2.04,2013-09-10 17:05:00,
2013-09-10 11:10:00,62.1,59.0,25.10,South,177,5.0,6.9,90,0.00,,,-99.99,FreeWX 2.04,2013-09-10 17:10:00,
2013-09-10 11:15:00,61.9,59.0,25.10,South,180,5.0,7.4,90,0.00,,,-99.99,FreeWX 2.04,2013-09-10 17:15:00,
2013-09-10 11:21:00,61.9,59.0,25.10,South,184,5.0,6.9,90,0.00,,,-99.99,FreeWX 2.04,2013-09-10 17:21:00,
2013-09-10 11:26:00,61.9,59.0,25.10,South,190,5.0,6.9,90,0.00,,,-99.99,FreeWX 2.04,2013-09-10 17:26:00,
2013-09-10 11:31:00,62.2,59.2,25.10,SSW,195,4.0,5.8,90,0.00,,,-99.99,FreeWX 2.04,2013-09-10 17:31:00,
2013-09-10 11:37:00,62.4,59.4,25.13,SSW,194,4.0,6.7,90,0.00,,,-99.99,FreeWX 2.04,2013-09-10 17:37:00,
2013-09-10 11:42:00,62.6,59.5,25.13,South,190,5.0,6.9,90,0.00,,,-99.99,FreeWX 2.04,2013-09-10 17:42:00,
2013-09-10 11:47:00,62.4,59.4,25.13,South,179,5.0,6.7,90,0.00,,,-99.99,FreeWX 2.04,2013-09-10 17:47:00,
2013-09-10 11:52:00,62.2,59.2,25.10,South,174,4.0,6.7,90,0.00,,,-99.99,FreeWX 2.04,2013-09-10 17:52:00,
2013-09-10 11:57:00,63.0,59.7,25.10,South,182,4.0,6.7,89,0.00,,,-99.99,FreeWX 2.04,2013-09-10 17:57:00,
2013-09-10 12:02:00,63.3,60.1,25.10,South,191,5.0,7.8,89,0.00,,,-99.99,FreeWX 2.04,2013-09-10 18:02:00,
2013-09-10 12:07:00,62.8,59.5,25.10,South,190,5.0,6.9,89,0.00,,,-99.99,FreeWX 2.04,2013-09-10 18:07:00,
2013-09-10 12:12:00,62.8,59.5,25.10,South,188,5.0,6.7,89,0.00,,,-99.99,FreeWX 2.04,2013-09-10 18:12:00,
2013-09-10 12:18:00,62.6,59.4,25.10,South,186,4.0,6.7,89,0.00,,,-99.99,FreeWX 2.04,2013-09-10 18:18:00,
2013-09-10 12:23:00,62.8,59.5,25.13,South,177,5.0,7.4,89,0.00,,,-99.99,FreeWX 2.04,2013-09-10 18:23:00,
2013-09-10 12:28:00,62.8,59.7,25.13,South,172,5.0,7.4,90,0.00,,,-99.99,FreeWX 2.04,2013-09-10 18:28:00,
2013-09-10 12:33:00,62.4,59.4,25.13,South,184,6.0,8.7,90,0.00,,,-99.99,FreeWX 2.04,2013-09-10 18:33:00,
2013-09-10 12:38:00,62.2,59.2,25.13,SSW,198,6.0,7.8,90,0.00,,,-99.99,FreeWX 2.04,2013-09-10 18:38:00,
2013-09-10 12:43:00,61.9,59.0,25.13,SSW,200,5.0,6.3,90,0.00,,,-99.99,FreeWX 2.04,2013-09-10 18:43:00,
2013-09-10 12:48:00,61.7,58.8,25.13,SSW,197,4.0,6.7,90,0.00,,,-99.99,FreeWX 2.04,2013-09-10 18:48:00,
2013-09-10 12:53:00,61.7,58.8,25.13,South,184,5.0,7.4,90,0.00,,,-99.99,FreeWX 2.04,2013-09-10 18:53:00,
2013-09-10 12:58:00,61.7,58.8,25.13,South,172,5.0,6.9,90,0.00,,,-99.99,FreeWX 2.04,2013-09-10 18:58:00,
2013-09-10 13:03:00,61.5,58.6,25.13,South,173,5.0,7.4,90,0.00,,,-99.99,FreeWX 2.04,2013-09-10 19:03:00,
2013-09-10 13:08:00,61.5,58.6,25.13,South,185,5.0,6.7,90,0.00,,,-99.99,FreeWX 2.04,2013-09-10 19:08:00,
2013-09-10 13:13:00,61.3,58.5,25.13,SSW,208,5.0,7.4,90,0.00,,,-99.99,FreeWX 2.04,2013-09-10 19:13:00,
2013-09-10 13:18:00,61.3,58.5,25.13,SW,227,5.0,6.9,90,0.00,,,-99.99,FreeWX 2.04,2013-09-10 19:18:00,
2013-09-10 13:23:00,61.5,58.6,25.13,WSW,238,5.0,7.8,90,0.00,,,-99.99,FreeWX 2.04,2013-09-10 19:23:00,
2013-09-10 13:28:00,61.7,58.8,25.13,WSW,242,5.0,6.7,90,0.00,,,-99.99,FreeWX 2.04,2013-09-10 19:28:00,
2013-09-10 13:33:00,61.0,58.1,25.13,WSW,242,5.0,6.3,90,0.00,,,-99.99,FreeWX 2.04,2013-09-10 19:33:00,
2013-09-10 13:38:00,61.2,58.3,25.13,WSW,242,4.0,5.8,90,0.00,,,-99.99,FreeWX 2.04,2013-09-10 19:38:00,
2013-09-10 13:43:00,61.5,58.6,25.13,WSW,242,4.0,5.8,90,0.00,,,-99.99,FreeWX 2.04,2013-09-10 19:43:00,
2013-09-10 13:48:00,62.6,59.4,25.13,WSW,242,4.0,6.3,89,0.00,,,-99.99,FreeWX 2.04,2013-09-10 19:48:00,
2013-09-10 13:53:00,61.9,58.6,25.10,WSW,242,4.0,6.3,89,0.00,,,-99.99,FreeWX 2.04,2013-09-10 19:53:00,
2013-09-10 13:58:00,62.1,58.8,25.10,WSW,242,4.0,5.8,89,0.00,,,-99.99,FreeWX 2.04,2013-09-10 19:58:00,
2013-09-10 14:03:00,61.9,59.0,25.10,WSW,242,3.0,4.9,90,0.00,,,-99.99,FreeWX 2.04,2013-09-10 20:03:00,
2013-09-10 14:08:00,62.6,59.4,25.10,WSW,242,3.0,4.9,89,0.00,,,-99.99,FreeWX 2.04,2013-09-10 20:08:00,
2013-09-10 14:13:00,62.6,59.5,25.10,WSW,242,2.0,5.4,90,0.00,,,-99.99,FreeWX 2.04,2013-09-10 20:13:00,
2013-09-10 14:18:00,62.4,59.2,25.10,WSW,242,2.0,4.5,89,0.00,,,-99.99,FreeWX 2.04,2013-09-10 20:18:00,
2013-09-10 14:23:00,62.8,59.5,25.10,WSW,242,3.0,4.5,89,0.00,,,-99.99,FreeWX 2.04,2013-09-10 20:23:00,
2013-09-10 14:28:00,63.1,60.1,25.10,WSW,242,2.0,3.6,90,0.00,,,-99.99,FreeWX 2.04,2013-09-10 20:28:00,
2013-09-10 14:33:00,63.1,60.1,25.10,WSW,242,1.0,3.6,90,0.00,,,-99.99,FreeWX 2.04,2013-09-10 20:33:00,
2013-09-10 14:38:00,63.5,60.3,25.10,North,-999,0.0,3.6,89,0.00,,,-99.99,FreeWX 2.04,2013-09-10 20:38:00,
2013-09-10 14:43:00,63.3,60.3,25.10,WSW,242,1.0,3.6,90,0.00,,,-99.99,FreeWX 2.04,2013-09-10 20:43:00,
2013-09-10 14:48:00,63.9,60.6,25.10,WSW,242,1.0,3.6,89,0.00,,,-99.99,FreeWX 2.04,2013-09-10 20:48:00,
2013-09-10 14:53:00,63.7,60.6,25.10,WSW,242,1.0,3.6,90,0.00,,,-99.99,FreeWX 2.04,2013-09-10 20:53:00,
2013-09-10 14:58:00,64.0,60.8,25.10,North,-999,0.0,3.6,89,0.00,,,-99.99,FreeWX 2.04,2013-09-10 20:58:00,
2013-09-10 15:03:00,63.9,60.6,25.10,WSW,242,1.0,4.9,89,0.00,,,-99.99,FreeWX 2.04,2013-09-10 21:03:00,
2013-09-10 15:08:00,64.6,60.6,25.10,WSW,242,2.0,4.0,87,0.00,,,-99.99,FreeWX 2.04,2013-09-10 21:08:00,
2013-09-10 15:13:00,64.4,60.4,25.10,WSW,242,2.0,4.9,87,0.00,,,-99.99,FreeWX 2.04,2013-09-10 21:13:00,
2013-09-10 15:18:00,64.2,59.9,25.10,WSW,242,2.0,4.5,86,0.00,,,-99.99,FreeWX 2.04,2013-09-10 21:18:00,
2013-09-10 15:23:00,63.9,59.2,25.10,WSW,242,3.0,4.9,85,0.00,,,-99.99,FreeWX 2.04,2013-09-10 21:23:00,
2013-09-10 15:28:00,64.4,59.7,25.10,WSW,242,2.0,3.6,85,0.00,,,-99.99,FreeWX 2.04,2013-09-10 21:28:00,
2013-09-10 15:33:00,64.2,59.4,25.10,WSW,242,2.0,4.9,84,0.00,,,-99.99,FreeWX 2.04,2013-09-10 21:33:00,
2013-09-10 15:38:00,64.2,59.5,25.10,SW,227,4.0,6.9,85,0.00,,,-99.99,FreeWX 2.04,2013-09-10 21:38:00,
2013-09-10 15:43:00,63.9,59.5,25.10,South,190,5.0,5.8,86,0.00,,,-99.99,FreeWX 2.04,2013-09-10 21:43:00,
2013-09-10 15:48:00,63.7,59.4,25.10,South,173,4.0,6.3,86,0.00,,,-99.99,FreeWX 2.04,2013-09-10 21:48:00,
2013-09-10 15:53:00,63.5,59.5,25.10,South,179,4.0,6.3,87,0.00,,,-99.99,FreeWX 2.04,2013-09-10 21:53:00,
2013-09-10 15:58:00,63.7,59.7,25.10,South,184,4.0,5.4,87,0.00,,,-99.99,FreeWX 2.04,2013-09-10 21:58:00,
2013-09-10 16:03:00,64.0,60.1,25.10,South,184,4.0,5.4,87,0.00,,,-99.99,FreeWX 2.04,2013-09-10 22:03:00,
2013-09-10 16:08:00,63.9,59.9,25.10,South,184,3.0,4.0,87,0.00,,,-99.99,FreeWX 2.04,2013-09-10 22:08:00,
2013-09-10 16:13:00,64.2,60.3,25.10,South,184,1.0,3.1,87,0.00,,,-99.99,FreeWX 2.04,2013-09-10 22:13:00,
2013-09-10 16:18:00,64.4,60.4,25.10,South,184,1.0,5.4,87,0.00,,,-99.99,FreeWX 2.04,2013-09-10 22:18:00,
2013-09-10 16:23:00,64.6,61.0,25.10,South,190,2.0,4.5,88,0.00,,,-99.99,FreeWX 2.04,2013-09-10 22:23:00,
2013-09-10 16:28:00,64.6,61.0,25.10,SSW,195,2.0,4.5,88,0.00,,,-99.99,FreeWX 2.04,2013-09-10 22:28:00,
2013-09-10 16:33:00,64.2,60.6,25.10,SSW,201,2.0,4.5,88,0.00,,,-99.99,FreeWX 2.04,2013-09-10 22:33:00,
2013-09-10 16:38:00,64.2,60.6,25.10,SSW,210,3.0,4.9,88,0.00,,,-99.99,FreeWX 2.04,2013-09-10 22:38:00,
2013-09-10 16:43:00,64.4,60.8,25.10,SW,234,3.0,4.9,88,0.00,,,-99.99,FreeWX 2.04,2013-09-10 22:43:00,
2013-09-10 16:48:00,64.0,60.4,25.10,West,259,3.0,4.9,88,0.00,,,-99.99,FreeWX 2.04,2013-09-10 22:48:00,
2013-09-10 16:53:00,64.0,60.4,25.10,West,264,4.0,6.3,88,0.00,,,-99.99,FreeWX 2.04,2013-09-10 22:53:00,
2013-09-10 16:58:00,63.9,60.6,25.10,West,272,4.0,5.8,89,0.00,,,-99.99,FreeWX 2.04,2013-09-10 22:58:00,
2013-09-10 17:03:00,63.7,60.4,25.10,West,281,4.0,5.8,89,0.00,,,-99.99,FreeWX 2.04,2013-09-10 23:03:00,
2013-09-10 17:08:00,63.5,60.3,25.10,WNW,285,4.0,6.9,89,0.00,,,-99.99,FreeWX 2.04,2013-09-10 23:08:00,
2013-09-10 17:13:00,63.5,60.3,25.10,NW,318,4.0,7.4,89,0.00,,,-99.99,FreeWX 2.04,2013-09-10 23:13:00,
2013-09-10 17:18:00,63.5,60.3,25.10,NNW,345,4.0,6.3,89,0.00,,,-99.99,FreeWX 2.04,2013-09-10 23:18:00,
2013-09-10 17:23:00,63.9,60.6,25.10,NNW,345,4.0,6.7,89,0.00,,,-99.99,FreeWX 2.04,2013-09-10 23:23:00,
2013-09-10 17:28:00,63.9,60.6,25.10,NNW,346,4.0,6.3,89,0.00,,,-99.99,FreeWX 2.04,2013-09-10 23:28:00,
2013-09-10 17:33:00,64.0,60.8,25.10,NNW,343,5.0,7.4,89,0.00,,,-99.99,FreeWX 2.04,2013-09-10 23:33:00,
2013-09-10 17:43:00,64.2,61.0,25.10,NNW,336,5.0,5.8,89,0.00,,,-99.99,FreeWX 2.04,2013-09-10 23:43:00,
2013-09-10 17:48:00,64.0,60.8,25.10,NNW,333,4.0,6.9,89,0.00,,,-99.99,FreeWX 2.04,2013-09-10 23:48:00,
2013-09-10 17:53:00,64.0,60.8,25.10,NNW,327,4.0,5.8,89,0.00,,,-99.99,FreeWX 2.04,2013-09-10 23:53:00,
2013-09-10 17:58:00,63.9,60.6,25.10,NW,322,4.0,6.9,89,0.00,,,-99.99,FreeWX 2.04,2013-09-10 23:58:00,
2013-09-10 18:03:00,63.9,60.6,25.10,NW,319,4.0,6.9,89,0.00,,,-99.99,FreeWX 2.04,2013-09-11 00:03:00,
2013-09-10 18:08:00,64.0,60.8,25.10,NW,317,4.0,5.8,89,0.00,,,-99.99,FreeWX 2.04,2013-09-11 00:08:00,
2013-09-10 18:13:00,64.0,60.8,25.10,NW,317,4.0,5.8,89,0.00,,,-99.99,FreeWX 2.04,2013-09-11 00:13:00,
2013-09-10 18:18:00,64.2,61.0,25.07,NW,317,4.0,5.4,89,0.00,,,-99.99,FreeWX 2.04,2013-09-11 00:18:00,
2013-09-10 18:23:00,64.2,61.0,25.07,NW,317,3.0,5.8,89,0.00,,,-99.99,FreeWX 2.04,2013-09-11 00:23:00,
2013-09-10 18:28:00,64.2,61.0,25.07,NW,317,3.0,5.8,89,0.00,,,-99.99,FreeWX 2.04,2013-09-11 00:28:00,
2013-09-10 18:33:00,63.9,60.6,25.07,NW,319,4.0,6.3,89,0.00,,,-99.99,FreeWX 2.04,2013-09-11 00:33:00,
2013-09-10 18:38:00,64.0,60.8,25.07,NW,321,4.0,5.8,89,0.00,,,-99.99,FreeWX 2.04,2013-09-11 00:38:00,
2013-09-10 18:43:00,63.9,60.6,25.07,NNW,330,4.0,6.7,89,0.00,,,-99.99,FreeWX 2.04,2013-09-11 00:43:00,
2013-09-10 18:48:00,63.9,60.6,25.10,NNW,342,5.0,6.9,89,0.00,,,-99.99,FreeWX 2.04,2013-09-11 00:48:00,
2013-09-10 18:53:00,63.9,60.6,25.10,NNW,348,4.0,6.3,89,0.00,,,-99.99,FreeWX 2.04,2013-09-11 00:53:00,
2013-09-10 18:58:00,63.7,60.4,25.10,North,351,3.0,4.9,89,0.00,,,-99.99,FreeWX 2.04,2013-09-11 00:58:00,
2013-09-10 19:03:00,63.7,60.4,25.07,North,351,2.0,3.6,89,0.00,,,-99.99,FreeWX 2.04,2013-09-11 01:03:00,
2013-09-10 19:08:00,63.7,60.4,25.07,North,351,2.0,3.6,89,0.00,,,-99.99,FreeWX 2.04,2013-09-11 01:08:00,
2013-09-10 19:19:00,63.3,60.3,25.10,North,351,3.0,5.4,90,0.00,,,-99.99,FreeWX 2.04,2013-09-11 01:19:00,
2013-09-10 19:24:00,63.5,60.4,25.10,North,351,3.0,5.4,90,0.00,,,-99.99,FreeWX 2.04,2013-09-11 01:24:00,
2013-09-10 19:29:00,63.5,60.4,25.10,North,351,3.0,4.9,90,0.00,,,-99.99,FreeWX 2.04,2013-09-11 01:29:00,
2013-09-10 19:34:00,63.5,60.4,25.10,North,351,4.0,6.3,90,0.00,,,-99.99,FreeWX 2.04,2013-09-11 01:34:00,
2013-09-10 19:39:00,63.3,60.3,25.10,North,350,4.0,6.3,90,0.00,,,-99.99,FreeWX 2.04,2013-09-11 01:39:00,
2013-09-10 19:44:00,63.1,60.1,25.10,North,351,4.0,7.8,90,0.00,,,-99.99,FreeWX 2.04,2013-09-11 01:44:00,
2013-09-10 19:49:00,63.1,59.9,25.10,North,359,5.0,6.9,89,0.00,,,-99.99,FreeWX 2.04,2013-09-11 01:49:00,
2013-09-10 19:54:00,63.1,59.9,25.10,North,4,5.0,6.9,89,0.00,,,-99.99,FreeWX 2.04,2013-09-11 01:54:00,
2013-09-10 19:59:00,63.1,60.1,25.10,North,7,4.0,6.3,90,0.00,,,-99.99,FreeWX 2.04,2013-09-11 01:59:00,
2013-09-10 20:04:00,63.0,59.9,25.10,NNE,12,4.0,6.7,90,0.00,,,-99.99,FreeWX 2.04,2013-09-11 02:04:00,
2013-09-10 20:09:00,63.1,59.9,25.10,NNE,21,3.0,5.4,89,0.00,,,-99.99,FreeWX 2.04,2013-09-11 02:09:00,
2013-09-10 20:14:00,63.1,59.9,25.10,NNE,33,4.0,6.7,89,0.00,,,-99.99,FreeWX 2.04,2013-09-11 02:14:00,
2013-09-10 20:19:00,63.3,60.1,25.10,NE,40,4.0,6.9,89,0.00,,,-99.99,FreeWX 2.04,2013-09-11 02:19:00,
2013-09-10 20:24:00,63.7,59.7,25.10,NE,40,5.0,8.3,87,0.00,,,-99.99,FreeWX 2.04,2013-09-11 02:24:00,
2013-09-10 20:29:00,64.0,60.1,25.10,NE,38,5.0,9.2,87,0.00,,,-99.99,FreeWX 2.04,2013-09-11 02:29:00,
2013-09-10 20:34:00,64.0,60.1,25.10,NE,36,5.0,8.3,87,0.00,,,-99.99,FreeWX 2.04,2013-09-11 02:34:00,
2013-09-10 20:39:00,64.2,59.5,25.10,NNE,31,5.0,11.0,85,0.00,,,-99.99,FreeWX 2.04,2013-09-11 02:39:00,
2013-09-10 20:44:00,64.9,59.0,25.10,NE,36,6.0,11.6,81,0.00,,,-99.99,FreeWX 2.04,2013-09-11 02:44:00,
2013-09-10 20:49:00,64.8,58.5,25.10,NE,39,6.0,7.4,80,0.00,,,-99.99,FreeWX 2.04,2013-09-11 02:49:00,
2013-09-10 20:54:00,64.8,58.5,25.10,NE,35,4.0,6.7,80,0.00,,,-99.99,FreeWX 2.04,2013-09-11 02:54:00,
2013-09-10 20:59:00,64.8,58.1,25.10,NNE,33,5.0,7.4,79,0.00,,,-99.99,FreeWX 2.04,2013-09-11 02:59:00,
2013-09-10 21:04:00,64.9,58.3,25.10,NNE,28,5.0,8.7,79,0.00,,,-99.99,FreeWX 2.04,2013-09-11 03:04:00,
2013-09-10 21:09:00,64.9,57.9,25.10,NNE,24,5.0,7.4,78,0.00,,,-99.99,FreeWX 2.04,2013-09-11 03:09:00,
2013-09-10 21:14:00,64.9,57.9,25.10,NNE,18,5.0,6.9,78,0.00,,,-99.99,FreeWX 2.04,2013-09-11 03:14:00,
2013-09-10 21:19:00,65.1,58.1,25.10,North,359,4.0,6.7,78,0.00,,,-99.99,FreeWX 2.04,2013-09-11 03:19:00,
2013-09-10 21:24:00,65.3,57.6,25.10,North,351,5.0,8.3,76,0.00,,,-99.99,FreeWX 2.04,2013-09-11 03:24:00,
2013-09-10 21:29:00,65.3,57.6,25.10,North,350,6.0,7.4,76,0.00,,,-99.99,FreeWX 2.04,2013-09-11 03:29:00,
2013-09-10 21:34:00,65.1,57.7,25.10,NNW,346,5.0,6.3,77,0.00,,,-99.99,FreeWX 2.04,2013-09-11 03:34:00,
2013-09-10 21:39:00,64.9,57.9,25.10,North,351,5.0,6.3,78,0.00,,,-99.99,FreeWX 2.04,2013-09-11 03:39:00,
2013-09-10 21:44:00,65.3,58.3,25.10,North,351,4.0,5.8,78,0.00,,,-99.99,FreeWX 2.04,2013-09-11 03:44:00,
2013-09-10 21:50:00,65.7,57.6,25.10,North,349,4.0,5.8,75,0.00,,,-99.99,FreeWX 2.04,2013-09-11 03:50:00,
2013-09-10 21:55:00,64.6,57.9,25.10,NNW,337,5.0,6.9,79,0.00,,,-99.99,FreeWX 2.04,2013-09-11 03:55:00,
2013-09-10 22:00:00,64.0,58.5,25.10,NW,320,5.0,6.9,82,0.00,,,-99.99,FreeWX 2.04,2013-09-11 04:00:00,
2013-09-10 22:05:00,63.9,59.0,25.10,NW,313,6.0,6.9,84,0.00,,,-99.99,FreeWX 2.04,2013-09-11 04:05:00,
2013-09-10 22:10:00,63.9,59.5,25.10,NW,312,4.0,6.7,86,0.00,,,-99.99,FreeWX 2.04,2013-09-11 04:10:00,
2013-09-10 22:16:00,63.7,59.4,25.10,NW,312,2.0,3.6,86,0.00,,,-99.99,FreeWX 2.04,2013-09-11 04:16:00,
2013-09-10 22:21:00,63.5,59.5,25.10,North,-999,0.0,3.6,87,0.00,,,-99.99,FreeWX 2.04,2013-09-11 04:21:00,
2013-09-10 22:26:00,63.3,59.4,25.10,NW,312,1.0,4.5,87,0.00,,,-99.99,FreeWX 2.04,2013-09-11 04:26:00,
2013-09-10 22:31:00,63.1,59.2,25.10,NW,311,2.0,4.5,87,0.00,,,-99.99,FreeWX 2.04,2013-09-11 04:31:00,
2013-09-10 22:36:00,63.1,59.5,25.13,NW,312,1.0,0.0,88,0.00,,,-99.99,FreeWX 2.04,2013-09-11 04:36:00,
2013-09-10 22:41:00,63.1,59.5,25.13,North,-999,0.0,0.0,88,0.00,,,-99.99,FreeWX 2.04,2013-09-11 04:41:00,
2013-09-10 22:46:00,63.1,59.9,25.13,North,-999,0.0,0.0,89,0.00,,,-99.99,FreeWX 2.04,2013-09-11 04:46:00,
2013-09-10 22:51:00,63.0,59.7,25.13,North,-999,0.0,3.1,89,0.00,,,-99.99,FreeWX 2.04,2013-09-11 04:51:00,
2013-09-10 22:56:00,62.8,59.5,25.13,North,-999,0.0,3.6,89,0.00,,,-99.99,FreeWX 2.04,2013-09-11 04:56:00,
2013-09-10 23:01:00,62.8,59.5,25.13,North,-999,0.0,0.0,89,0.00,,,-99.99,FreeWX 2.04,2013-09-11 05:01:00,
2013-09-10 23:06:00,62.6,59.4,25.10,North,-999,0.0,0.0,89,0.00,,,-99.99,FreeWX 2.04,2013-09-11 05:06:00,
2013-09-10 23:11:00,62.6,59.4,25.10,North,-999,0.0,0.0,89,0.00,,,-99.99,FreeWX 2.04,2013-09-11 05:11:00,
2013-09-10 23:16:00,62.6,59.4,25.10,North,-999,0.0,3.1,89,0.00,,,-99.99,FreeWX 2.04,2013-09-11 05:16:00,
2013-09-10 23:21:00,62.6,59.5,25.10,North,-999,0.0,3.1,90,0.00,,,-99.99,FreeWX 2.04,2013-09-11 05:21:00,
2013-09-10 23:26:00,62.6,59.5,25.10,NW,311,1.0,4.5,90,0.00,,,-99.99,FreeWX 2.04,2013-09-11 05:26:00,
2013-09-10 23:31:00,62.6,59.5,25.10,NW,312,1.0,3.1,90,0.00,,,-99.99,FreeWX 2.04,2013-09-11 05:31:00,
2013-09-10 23:36:00,62.4,59.2,25.10,NW,312,2.0,3.6,89,0.00,,,-99.99,FreeWX 2.04,2013-09-11 05:36:00,
2013-09-10 23:41:00,62.4,59.2,25.10,NW,312,2.0,3.6,89,0.00,,,-99.99,FreeWX 2.04,2013-09-11 05:41:00,
2013-09-10 23:46:00,62.6,59.4,25.10,NW,311,2.0,4.5,89,0.00,,,-99.99,FreeWX 2.04,2013-09-11 05:46:00,
2013-09-10 23:51:00,62.6,59.4,25.10,NW,311,2.0,4.9,89,0.00,,,-99.99,FreeWX 2.04,2013-09-11 05:51:00,
2013-09-10 23:56:00,62.8,59.5,25.10,NW,311,2.0,4.5,89,0.00,,,-99.99,FreeWX 2.04,2013-09-11 05:56:00,